map of PCR home
Great Circle Mapper logo
PCR - Airport
Location
City:  Puerto Carreño, Colombia
ICAO / IATA:SKPC / PCR

Details
Type:Airport (Aerodrome, Airfield)
Latitude:6°11'15"N (6.187500)
Longitude:67°29'48"W (-67.496666)
Elevation:177 ft (54 m)
Runways:1
Longest:5907 × 69 ft (1800 × 21 m), paved

Time
Time Zone:UTC-5
Local Time:

Weather
METAR:SKPC 231200Z 00000KT 9999 SCT020 SCT090 26/24 A2985

Related Locations
Nearby:
Farthest:SUB: 12346 mi / 19870 km
Surabaya [Juanda Intl], East Java, ID

Find:

   beyond  
but within

Other Information
Maps:
NOTAMs:
Links:
Sources:

  
flag of Colombia   

Sectional Chart

Flight Planning
at skyvector.com

Satellite Image

Google Maps Satellite View

 

Copyright © 2004-2014 Karl L. Swartz. All rights reserved.
The Great Circle Mapper name and logo are trademarks of the Great Circle Mapper.
All other trademarks mentioned herein belong to their respective owners.
Please see credits for attibutions and further copyright information.

  Follow gcmap on Facebook Follow gcmap on Twitter

hCard Microformat

Geo Microformat